sensor_id;sensor_type;location;lat;lon;timestamp;pressure;altitude;pressure_sealevel;temperature;humidity
53011;BME280;42803;55.762;38.084;2022-12-31T00:01:25;99014.47;;;0.08;100.00
53011;BME280;42803;55.762;38.084;2022-12-31T00:03:55;99012.63;;;0.07;100.00
53011;BME280;42803;55.762;38.084;2022-12-31T00:06:26;99015.03;;;0.05;100.00
53011;BME280;42803;55.762;38.084;2022-12-31T00:09:03;99008.09;;;0.04;100.00
53011;BME280;42803;55.762;38.084;2022-12-31T00:11:33;99004.03;;;0.06;100.00
53011;BME280;42803;55.762;38.084;2022-12-31T00:14:03;99003.28;;;0.07;100.00
53011;BME280;42803;55.762;38.084;2022-12-31T00:16:34;98997.72;;;0.11;100.00
53011;BME280;42803;55.762;38.084;2022-12-31T00:19:05;98998.81;;;0.13;100.00
53011;BME280;42803;55.762;38.084;2022-12-31T00:21:35;98998.81;;;0.13;100.00
53011;BME280;42803;55.762;38.084;2022-12-31T00:24:07;98998.25;;;0.16;100.00
53011;BME280;42803;55.762;38.084;2022-12-31T00:26:36;98999.16;;;0.16;100.00
53011;BME280;42803;55.762;38.084;2022-12-31T00:29:05;98994.78;;;0.15;100.00
53011;BME280;42803;55.762;38.084;2022-12-31T00:31:36;98993.13;;;0.16;100.00
53011;BME280;42803;55.762;38.084;2022-12-31T00:34:06;98991.63;;;0.18;100.00
53011;BME280;42803;55.762;38.084;2022-12-31T00:36:37;98990.88;;;0.19;100.00
53011;BME280;42803;55.762;38.084;2022-12-31T00:39:09;98987.41;;;0.18;100.00
53011;BME280;42803;55.762;38.084;2022-12-31T00:41:38;98987.41;;;0.18;100.00
53011;BME280;42803;55.762;38.084;2022-12-31T00:44:10;98987.09;;;0.15;100.00
53011;BME280;42803;55.762;38.084;2022-12-31T00:46:40;98986.91;;;0.14;100.00
53011;BME280;42803;55.762;38.084;2022-12-31T00:49:08;98982.88;;;0.16;100.00
53011;BME280;42803;55.762;38.084;2022-12-31T00:51:37;98986.75;;;0.12;100.00
53011;BME280;42803;55.762;38.084;2022-12-31T00:54:07;98981.44;;;0.11;100.00
53011;BME280;42803;55.762;38.084;2022-12-31T00:56:36;98973.25;;;0.06;100.00
53011;BME280;42803;55.762;38.084;2022-12-31T00:59:05;98979.13;;;0.05;100.00
53011;BME280;42803;55.762;38.084;2022-12-31T01:01:37;98973.81;;;0.04;100.00
53011;BME280;42803;55.762;38.084;2022-12-31T01:04:09;98970.94;;;0.01;100.00
53011;BME280;42803;55.762;38.084;2022-12-31T01:06:38;98980.50;;;-0.06;100.00
53011;BME280;42803;55.762;38.084;2022-12-31T01:09:09;98978.50;;;-0.08;100.00
53011;BME280;42803;55.762;38.084;2022-12-31T01:11:39;98972.31;;;-0.10;100.00
53011;BME280;42803;55.762;38.084;2022-12-31T01:14:11;98972.31;;;-0.10;100.00
53011;BME280;42803;55.762;38.084;2022-12-31T01:16:44;98970.50;;;-0.11;100.00
53011;BME280;42803;55.762;38.084;2022-12-31T01:19:17;98979.53;;;-0.15;100.00
53011;BME280;42803;55.762;38.084;2022-12-31T01:21:48;98976.13;;;-0.22;100.00
53011;BME280;42803;55.762;38.084;2022-12-31T01:24:19;98975.44;;;-0.29;100.00
53011;BME280;42803;55.762;38.084;2022-12-31T01:26:49;98972.94;;;-0.36;100.00
53011;BME280;42803;55.762;38.084;2022-12-31T01:29:18;98971.69;;;-0.39;100.00
53011;BME280;42803;55.762;38.084;2022-12-31T01:31:47;98977.06;;;-0.45;100.00
53011;BME280;42803;55.762;38.084;2022-12-31T01:34:16;98978.03;;;-0.52;100.00
53011;BME280;42803;55.762;38.084;2022-12-31T01:36:45;98980.25;;;-0.55;100.00
53011;BME280;42803;55.762;38.084;2022-12-31T01:39:15;98983.78;;;-0.61;100.00
53011;BME280;42803;55.762;38.084;2022-12-31T01:41:46;98978.72;;;-0.68;100.00
53011;BME280;42803;55.762;38.084;2022-12-31T01:44:48;98978.19;;;-0.73;100.00
53011;BME280;42803;55.762;38.084;2022-12-31T01:47:23;98978.94;;;-0.74;100.00
53011;BME280;42803;55.762;38.084;2022-12-31T01:49:59;98976.03;;;-0.77;100.00
53011;BME280;42803;55.762;38.084;2022-12-31T01:52:34;98981.00;;;-0.79;100.00
53011;BME280;42803;55.762;38.084;2022-12-31T01:55:08;98972.97;;;-0.82;100.00
53011;BME280;42803;55.762;38.084;2022-12-31T01:57:43;98982.16;;;-0.84;100.00
53011;BME280;42803;55.762;38.084;2022-12-31T02:00:14;98984.72;;;-0.84;100.00
53011;BME280;42803;55.762;38.084;2022-12-31T02:02:43;98979.94;;;-0.88;100.00
53011;BME280;42803;55.762;38.084;2022-12-31T02:05:18;98981.44;;;-0.90;100.00
53011;BME280;42803;55.762;38.084;2022-12-31T02:07:48;98978.88;;;-0.90;100.00
53011;BME280;42803;55.762;38.084;2022-12-31T02:10:17;98977.63;;;-0.93;100.00
53011;BME280;42803;55.762;38.084;2022-12-31T02:12:48;98972.50;;;-0.93;100.00
53011;BME280;42803;55.762;38.084;2022-12-31T02:15:20;98971.59;;;-0.94;100.00
53011;BME280;42803;55.762;38.084;2022-12-31T02:17:55;98982.00;;;-0.92;100.00
53011;BME280;42803;55.762;38.084;2022-12-31T02:26:56;98982.75;;;-0.93;100.00
53011;BME280;42803;55.762;38.084;2022-12-31T02:30:08;98981.28;;;-0.91;100.00
53011;BME280;42803;55.762;38.084;2022-12-31T02:32:52;98975.22;;;-0.92;100.00
53011;BME280;42803;55.762;38.084;2022-12-31T02:35:27;98976.72;;;-0.94;100.00
53011;BME280;42803;55.762;38.084;2022-12-31T02:38:02;98975.22;;;-0.92;100.00
53011;BME280;42803;55.762;38.084;2022-12-31T02:40:34;98988.22;;;-0.90;100.00
53011;BME280;42803;55.762;38.084;2022-12-31T02:43:05;98987.31;;;-0.91;100.00
53011;BME280;42803;55.762;38.084;2022-12-31T02:45:37;98992.44;;;-0.91;100.00
53011;BME280;42803;55.762;38.084;2022-12-31T02:48:18;98992.84;;;-0.95;100.00
53011;BME280;42803;55.762;38.084;2022-12-31T02:50:57;98985.16;;;-0.95;100.00
53011;BME280;42803;55.762;38.084;2022-12-31T02:53:49;98991.19;;;-0.94;100.00
53011;BME280;42803;55.762;38.084;2022-12-31T02:56:26;98985.16;;;-0.95;100.00
53011;BME280;42803;55.762;38.084;2022-12-31T02:58:58;98977.78;;;-0.92;100.00
53011;BME280;42803;55.762;38.084;2022-12-31T03:01:52;98984.00;;;-0.90;100.00
53011;BME280;42803;55.762;38.084;2022-12-31T03:04:44;98983.25;;;-0.89;100.00
53011;BME280;42803;55.762;38.084;2022-12-31T03:07:18;98979.44;;;-0.92;100.00
53011;BME280;42803;55.762;38.084;2022-12-31T03:09:47;98978.72;;;-0.91;100.00
53011;BME280;42803;55.762;38.084;2022-12-31T03:12:18;98972.84;;;-0.90;100.00
53011;BME280;42803;55.762;38.084;2022-12-31T03:15:06;98974.66;;;-0.89;100.00
53011;BME280;42803;55.762;38.084;2022-12-31T03:17:54;98980.69;;;-0.89;100.00
53011;BME280;42803;55.762;38.084;2022-12-31T03:20:28;98984.34;;;-0.87;100.00
53011;BME280;42803;55.762;38.084;2022-12-31T03:23:18;98981.03;;;-0.86;100.00
53011;BME280;42803;55.762;38.084;2022-12-31T03:25:48;98985.41;;;-0.85;100.00
53011;BME280;42803;55.762;38.084;2022-12-31T03:28:18;98991.28;;;-0.86;100.00
53011;BME280;42803;55.762;38.084;2022-12-31T03:30:49;98992.94;;;-0.86;100.00
53011;BME280;42803;55.762;38.084;2022-12-31T03:33:20;98986.16;;;-0.86;100.00
53011;BME280;42803;55.762;38.084;2022-12-31T03:35:51;98981.75;;;-0.80;100.00
53011;BME280;42803;55.762;38.084;2022-12-31T03:38:20;98983.38;;;-0.80;100.00
53011;BME280;42803;55.762;38.084;2022-12-31T03:40:51;98985.03;;;-0.81;100.00
53011;BME280;42803;55.762;38.084;2022-12-31T03:43:20;98983.22;;;-0.82;100.00
53011;BME280;42803;55.762;38.084;2022-12-31T03:45:50;98984.72;;;-0.84;100.00
53011;BME280;42803;55.762;38.084;2022-12-31T03:48:22;98987.06;;;-0.85;100.00
53011;BME280;42803;55.762;38.084;2022-12-31T03:50:51;98986.16;;;-0.86;100.00
53011;BME280;42803;55.762;38.084;2022-12-31T03:53:21;98979.91;;;-0.81;100.00
53011;BME280;42803;55.762;38.084;2022-12-31T03:55:50;98986.69;;;-0.81;100.00
53011;BME280;42803;55.762;38.084;2022-12-31T03:58:20;98990.34;;;-0.79;100.00
53011;BME280;42803;55.762;38.084;2022-12-31T04:00:49;98989.84;;;-0.84;100.00
53011;BME280;42803;55.762;38.084;2022-12-31T04:03:18;98996.81;;;-0.90;100.00
53011;BME280;42803;55.762;38.084;2022-12-31T04:05:53;98995.72;;;-0.92;100.00
53011;BME280;42803;55.762;38.084;2022-12-31T04:08:23;98998.69;;;-0.96;100.00
53011;BME280;42803;55.762;38.084;2022-12-31T04:10:52;98995.41;;;-0.95;100.00
53011;BME280;42803;55.762;38.084;2022-12-31T04:13:21;98997.22;;;-0.94;100.00
53011;BME280;42803;55.762;38.084;2022-12-31T04:15:50;99003.59;;;-0.90;100.00
53011;BME280;42803;55.762;38.084;2022-12-31T04:18:19;99000.44;;;-0.88;100.00
53011;BME280;42803;55.762;38.084;2022-12-31T04:20:48;99012.34;;;-0.88;100.00
53011;BME280;42803;55.762;38.084;2022-12-31T04:23:19;99016.00;;;-0.86;100.00
53011;BME280;42803;55.762;38.084;2022-12-31T04:25:48;99012.53;;;-0.87;100.00
53011;BME280;42803;55.762;38.084;2022-12-31T04:28:17;99015.09;;;-0.87;100.00
53011;BME280;42803;55.762;38.084;2022-12-31T04:30:46;99021.69;;;-0.89;100.00
53011;BME280;42803;55.762;38.084;2022-12-31T04:33:15;99021.69;;;-0.89;100.00
53011;BME280;42803;55.762;38.084;2022-12-31T04:35:45;99023.19;;;-0.91;100.00
53011;BME280;42803;55.762;38.084;2022-12-31T04:38:14;99019.53;;;-0.93;100.00
53011;BME280;42803;55.762;38.084;2022-12-31T04:40:45;99022.81;;;-0.94;100.00
53011;BME280;42803;55.762;38.084;2022-12-31T04:43:28;99027.94;;;-0.94;100.00
53011;BME280;42803;55.762;38.084;2022-12-31T04:45:57;99035.78;;;-0.92;100.00
53011;BME280;42803;55.762;38.084;2022-12-31T04:48:26;99029.75;;;-0.93;100.00
53011;BME280;42803;55.762;38.084;2022-12-31T04:50:55;99021.00;;;-0.95;100.00
53011;BME280;42803;55.762;38.084;2022-12-31T04:53:24;99024.28;;;-0.96;100.00
53011;BME280;42803;55.762;38.084;2022-12-31T04:55:55;99025.03;;;-0.97;100.00
53011;BME280;42803;55.762;38.084;2022-12-31T04:58:24;99030.00;;;-0.99;100.00
53011;BME280;42803;55.762;38.084;2022-12-31T05:00:53;99037.09;;;-0.96;100.00
53011;BME280;42803;55.762;38.084;2022-12-31T05:03:24;99043.13;;;-0.95;100.00
53011;BME280;42803;55.762;38.084;2022-12-31T05:05:59;99049.34;;;-0.93;100.00
53011;BME280;42803;55.762;38.084;2022-12-31T05:08:29;99045.88;;;-0.94;100.00
53011;BME280;42803;55.762;38.084;2022-12-31T05:11:00;99051.16;;;-0.92;100.00
53011;BME280;42803;55.762;38.084;2022-12-31T05:13:29;99045.88;;;-0.94;100.00
53011;BME280;42803;55.762;38.084;2022-12-31T05:16:00;99052.06;;;-0.92;100.00
53011;BME280;42803;55.762;38.084;2022-12-31T05:18:30;99060.13;;;-0.89;100.00
53011;BME280;42803;55.762;38.084;2022-12-31T05:20:59;99064.16;;;-0.91;100.00
53011;BME280;42803;55.762;38.084;2022-12-31T05:23:28;99073.50;;;-0.91;100.00
53011;BME280;42803;55.762;38.084;2022-12-31T05:25:59;99074.41;;;-0.91;100.00
53011;BME280;42803;55.762;38.084;2022-12-31T05:28:28;99073.31;;;-0.93;100.00
53011;BME280;42803;55.762;38.084;2022-12-31T05:30:59;99085.38;;;-0.92;100.00
53011;BME280;42803;55.762;38.084;2022-12-31T05:33:28;99085.38;;;-0.92;100.00
53011;BME280;42803;55.762;38.084;2022-12-31T05:35:57;99085.56;;;-0.90;100.00
53011;BME280;42803;55.762;38.084;2022-12-31T05:38:26;99087.94;;;-0.92;100.00
53011;BME280;42803;55.762;38.084;2022-12-31T05:41:01;99093.41;;;-0.89;100.00
53011;BME280;42803;55.762;38.084;2022-12-31T05:43:31;99103.66;;;-0.89;100.00
53011;BME280;42803;55.762;38.084;2022-12-31T05:46:01;99108.78;;;-0.89;100.00
53011;BME280;42803;55.762;38.084;2022-12-31T05:48:31;99109.38;;;-0.91;100.00
53011;BME280;42803;55.762;38.084;2022-12-31T05:51:00;99112.44;;;-0.87;100.00
53011;BME280;42803;55.762;38.084;2022-12-31T05:53:29;99126.72;;;-0.89;100.00
53011;BME280;42803;55.762;38.084;2022-12-31T05:55:58;99136.22;;;-0.88;100.00
53011;BME280;42803;55.762;38.084;2022-12-31T05:58:28;99142.28;;;-0.87;100.00
53011;BME280;42803;55.762;38.084;2022-12-31T06:00:57;99144.66;;;-0.89;100.00
53011;BME280;42803;55.762;38.084;2022-12-31T06:03:26;99157.06;;;-0.85;100.00
53011;BME280;42803;55.762;38.084;2022-12-31T06:05:56;99154.72;;;-0.83;100.00
53011;BME280;42803;55.762;38.084;2022-12-31T06:08:25;99151.25;;;-0.84;100.00
53011;BME280;42803;55.762;38.084;2022-12-31T06:10:54;99158.19;;;-0.83;100.00
53011;BME280;42803;55.762;38.084;2022-12-31T06:13:23;99161.50;;;-0.84;100.00
53011;BME280;42803;55.762;38.084;2022-12-31T06:15:53;99161.50;;;-0.84;100.00
53011;BME280;42803;55.762;38.084;2022-12-31T06:18:22;99164.75;;;-0.85;100.00
53011;BME280;42803;55.762;38.084;2022-12-31T06:20:52;99171.16;;;-0.81;100.00
53011;BME280;42803;55.762;38.084;2022-12-31T06:23:21;99176.88;;;-0.84;100.00
53011;BME280;42803;55.762;38.084;2022-12-31T06:25:50;99192.03;;;-0.85;100.00
53011;BME280;42803;55.762;38.084;2022-12-31T06:28:19;99189.66;;;-0.84;100.00
53011;BME280;42803;55.762;38.084;2022-12-31T06:30:48;99195.72;;;-0.83;100.00
53011;BME280;42803;55.762;38.084;2022-12-31T06:33:19;99208.50;;;-0.76;100.00
53011;BME280;42803;55.762;38.084;2022-12-31T06:35:48;99208.69;;;-0.82;100.00
53011;BME280;42803;55.762;38.084;2022-12-31T06:38:17;99212.50;;;-0.78;100.00
53011;BME280;42803;55.762;38.084;2022-12-31T06:40:46;99219.09;;;-0.80;100.00
53011;BME280;42803;55.762;38.084;2022-12-31T06:43:15;99220.59;;;-0.82;100.00
53011;BME280;42803;55.762;38.084;2022-12-31T06:45:44;99226.22;;;-0.78;100.00
53011;BME280;42803;55.762;38.084;2022-12-31T06:48:13;99221.09;;;-0.78;100.00
53011;BME280;42803;55.762;38.084;2022-12-31T06:50:44;99216.19;;;-0.76;100.00
53011;BME280;42803;55.762;38.084;2022-12-31T06:53:13;99223.50;;;-0.79;100.00
53011;BME280;42803;55.762;38.084;2022-12-31T06:55:42;99232.84;;;-0.80;100.00
53011;BME280;42803;55.762;38.084;2022-12-31T06:58:12;99226.03;;;-0.72;100.00
53011;BME280;42803;55.762;38.084;2022-12-31T07:00:49;99233.91;;;-0.70;100.00
53011;BME280;42803;55.762;38.084;2022-12-31T07:03:28;99235.72;;;-0.69;100.00
53011;BME280;42803;55.762;38.084;2022-12-31T07:06:07;99244.50;;;-0.67;100.00
53011;BME280;42803;55.762;38.084;2022-12-31T07:08:47;99249.41;;;-0.62;100.00
53011;BME280;42803;55.762;38.084;2022-12-31T07:11:20;99259.50;;;-0.63;100.00
53011;BME280;42803;55.762;38.084;2022-12-31T07:14:01;99254.91;;;-0.59;100.00
53011;BME280;42803;55.762;38.084;2022-12-31T07:16:49;99259.28;;;-0.58;100.00
53011;BME280;42803;55.762;38.084;2022-12-31T07:19:26;99259.25;;;-0.51;100.00
53011;BME280;42803;55.762;38.084;2022-12-31T07:21:58;99270.25;;;-0.52;100.00
53011;BME280;42803;55.762;38.084;2022-12-31T07:24:27;99276.50;;;-0.57;100.00
53011;BME280;42803;55.762;38.084;2022-12-31T07:27:06;99285.63;;;-0.52;100.00
53011;BME280;42803;55.762;38.084;2022-12-31T07:29:48;99279.59;;;-0.52;100.00
53011;BME280;42803;55.762;38.084;2022-12-31T07:32:32;99283.97;;;-0.51;100.00
53011;BME280;42803;55.762;38.084;2022-12-31T07:35:13;99285.09;;;-0.49;100.00
53011;BME280;42803;55.762;38.084;2022-12-31T07:37:54;99283.44;;;-0.48;100.00
53011;BME280;42803;55.762;38.084;2022-12-31T07:40:34;99286.91;;;-0.48;100.00
53011;BME280;42803;55.762;38.084;2022-12-31T07:43:11;99296.25;;;-0.48;100.00
53011;BME280;42803;55.762;38.084;2022-12-31T07:45:48;99299.72;;;-0.48;100.00
53011;BME280;42803;55.762;38.084;2022-12-31T07:48:22;99292.19;;;-0.46;100.00
53011;BME280;42803;55.762;38.084;2022-12-31T07:50:54;99298.81;;;-0.48;100.00
53011;BME280;42803;55.762;38.084;2022-12-31T07:53:26;99301.91;;;-0.44;100.00
53011;BME280;42803;55.762;38.084;2022-12-31T07:55:58;99313.97;;;-0.43;100.00
53011;BME280;42803;55.762;38.084;2022-12-31T07:58:35;99316.53;;;-0.36;100.00
53011;BME280;42803;55.762;38.084;2022-12-31T08:01:10;99323.31;;;-0.36;100.00
53011;BME280;42803;55.762;38.084;2022-12-31T08:03:47;99318.34;;;-0.35;100.00
53011;BME280;42803;55.762;38.084;2022-12-31T08:06:27;99324.75;;;-0.31;100.00
53011;BME280;42803;55.762;38.084;2022-12-31T08:09:07;99315.78;;;-0.35;100.00
53011;BME280;42803;55.762;38.084;2022-12-31T08:11:43;99322.38;;;-0.30;100.00
53011;BME280;42803;55.762;38.084;2022-12-31T08:14:14;99326.00;;;-0.28;100.00
53011;BME280;42803;55.762;38.084;2022-12-31T08:16:44;99328.19;;;-0.23;100.00
53011;BME280;42803;55.762;38.084;2022-12-31T08:19:21;99330.38;;;-0.19;100.00
53011;BME280;42803;55.762;38.084;2022-12-31T08:22:02;99328.53;;;-0.13;100.00
53011;BME280;42803;55.762;38.084;2022-12-31T08:24:42;99332.50;;;-0.01;100.00
53011;BME280;42803;55.762;38.084;2022-12-31T08:27:24;99332.09;;;0.03;100.00
53011;BME280;42803;55.762;38.084;2022-12-31T08:30:03;99332.66;;;0.08;100.00
53011;BME280;42803;55.762;38.084;2022-12-31T08:32:38;99328.03;;;0.12;100.00
53011;BME280;42803;55.762;38.084;2022-12-31T08:35:18;99332.38;;;0.20;100.00
53011;BME280;42803;55.762;38.084;2022-12-31T08:37:56;99332.34;;;0.28;100.00
53011;BME280;42803;55.762;38.084;2022-12-31T08:40:33;99334.72;;;0.26;100.00
53011;BME280;42803;55.762;38.084;2022-12-31T08:43:16;99327.22;;;0.28;100.00
53011;BME280;42803;55.762;38.084;2022-12-31T08:45:50;99330.88;;;0.22;100.00
53011;BME280;42803;55.762;38.084;2022-12-31T08:48:24;99331.47;;;0.20;100.00
53011;BME280;42803;55.762;38.084;2022-12-31T08:50:58;99341.13;;;0.30;100.00
53011;BME280;42803;55.762;38.084;2022-12-31T08:53:27;99343.53;;;0.28;100.00
53011;BME280;42803;55.762;38.084;2022-12-31T08:56:01;99332.34;;;0.28;100.00
53011;BME280;42803;55.762;38.084;2022-12-31T08:58:41;99335.63;;;0.27;100.00
53011;BME280;42803;55.762;38.084;2022-12-31T09:01:16;99341.47;;;0.33;100.00
53011;BME280;42803;55.762;38.084;2022-12-31T09:04:03;99357.22;;;0.36;100.00
53011;BME280;42803;55.762;38.084;2022-12-31T09:06:39;99360.59;;;0.28;100.00
53011;BME280;42803;55.762;38.084;2022-12-31T09:09:17;99358.56;;;0.25;100.00
53011;BME280;42803;55.762;38.084;2022-12-31T09:11:57;99356.03;;;0.18;100.00
53011;BME280;42803;55.762;38.084;2022-12-31T09:14:40;99370.94;;;0.06;100.00
53011;BME280;42803;55.762;38.084;2022-12-31T09:17:29;99366.09;;;0.23;100.00
53011;BME280;42803;55.762;38.084;2022-12-31T09:20:03;99364.81;;;0.27;100.00
53011;BME280;42803;55.762;38.084;2022-12-31T09:22:33;99362.78;;;0.24;100.00
53011;BME280;42803;55.762;38.084;2022-12-31T09:25:02;99363.16;;;0.28;100.00
53011;BME280;42803;55.762;38.084;2022-12-31T09:27:39;99364.56;;;0.33;100.00
53011;BME280;42803;55.762;38.084;2022-12-31T09:30:11;99369.88;;;0.34;100.00
53011;BME280;42803;55.762;38.084;2022-12-31T09:32:48;99359.59;;;0.34;100.00
53011;BME280;42803;55.762;38.084;2022-12-31T09:35:34;99363.97;;;0.42;100.00
53011;BME280;42803;55.762;38.084;2022-12-31T09:38:10;99366.47;;;0.49;100.00
53011;BME280;42803;55.762;38.084;2022-12-31T09:40:52;99370.38;;;0.46;100.00
53011;BME280;42803;55.762;38.084;2022-12-31T09:50:17;99391.56;;;0.59;100.00
53011;BME280;42803;55.762;38.084;2022-12-31T09:53:01;99404.63;;;0.54;100.00
53011;BME280;42803;55.762;38.084;2022-12-31T09:55:36;99404.44;;;0.52;100.00
53011;BME280;42803;55.762;38.084;2022-12-31T09:58:18;99408.91;;;0.46;100.00
53011;BME280;42803;55.762;38.084;2022-12-31T10:00:59;99417.69;;;0.41;100.00
53011;BME280;42803;55.762;38.084;2022-12-31T10:03:41;99412.28;;;0.31;100.00
53011;BME280;42803;55.762;38.084;2022-12-31T10:06:25;99411.41;;;0.23;100.00
53011;BME280;42803;55.762;38.084;2022-12-31T10:09:01;99415.19;;;0.27;100.00
53011;BME280;42803;55.762;38.084;2022-12-31T10:11:58;99400.53;;;0.26;100.00
53011;BME280;42803;55.762;38.084;2022-12-31T10:14:43;99395.94;;;0.30;100.00
53011;BME280;42803;55.762;38.084;2022-12-31T10:17:25;99392.81;;;0.33;100.00
53011;BME280;42803;55.762;38.084;2022-12-31T10:20:36;99398.66;;;0.39;100.00
53011;BME280;42803;55.762;38.084;2022-12-31T10:23:24;99412.94;;;0.44;100.00
53011;BME280;42803;55.762;38.084;2022-12-31T10:26:13;99416.00;;;0.48;100.00
53011;BME280;42803;55.762;38.084;2022-12-31T10:28:50;99436.78;;;0.43;100.00
53011;BME280;42803;55.762;38.084;2022-12-31T10:31:41;99445.94;;;0.41;100.00
53011;BME280;42803;55.762;38.084;2022-12-31T10:34:18;99442.84;;;0.36;100.00
53011;BME280;42803;55.762;38.084;2022-12-31T10:36:56;99449.63;;;0.43;100.00
53011;BME280;42803;55.762;38.084;2022-12-31T10:39:41;99459.09;;;0.58;100.00
53011;BME280;42803;55.762;38.084;2022-12-31T10:42:32;99465.56;;;0.78;100.00
53011;BME280;42803;55.762;38.084;2022-12-31T10:45:26;99469.19;;;0.87;100.00
53011;BME280;42803;55.762;38.084;2022-12-31T10:48:32;99477.75;;;0.94;100.00
53011;BME280;42803;55.762;38.084;2022-12-31T11:00:33;99477.41;;;0.61;100.00
53011;BME280;42803;55.762;38.084;2022-12-31T11:12:55;99486.63;;;0.45;100.00
53011;BME280;42803;55.762;38.084;2022-12-31T11:15:40;99478.78;;;0.43;100.00
53011;BME280;42803;55.762;38.084;2022-12-31T11:18:23;99484.66;;;0.42;100.00
53011;BME280;42803;55.762;38.084;2022-12-31T11:21:18;99481.31;;;0.51;100.00
53011;BME280;42803;55.762;38.084;2022-12-31T11:24:03;99471.19;;;0.52;100.00
53011;BME280;42803;55.762;38.084;2022-12-31T11:26:41;99473.75;;;0.59;100.00
53011;BME280;42803;55.762;38.084;2022-12-31T11:29:33;99476.31;;;0.59;100.00
53011;BME280;42803;55.762;38.084;2022-12-31T11:32:14;99469.72;;;0.61;100.00
53011;BME280;42803;55.762;38.084;2022-12-31T11:35:06;99499.03;;;0.63;100.00
53011;BME280;42803;55.762;38.084;2022-12-31T11:37:44;99520.72;;;0.58;100.00
53011;BME280;42803;55.762;38.084;2022-12-31T11:40:29;99523.69;;;0.54;100.00
53011;BME280;42803;55.762;38.084;2022-12-31T11:43:03;99521.81;;;0.53;100.00
53011;BME280;42803;55.762;38.084;2022-12-31T11:45:53;99537.81;;;0.51;100.00
53011;BME280;42803;55.762;38.084;2022-12-31T11:48:34;99541.84;;;0.48;100.00
53011;BME280;42803;55.762;38.084;2022-12-31T11:51:18;99540.00;;;0.47;100.00
53011;BME280;42803;55.762;38.084;2022-12-31T11:54:06;99537.59;;;0.49;100.00
53011;BME280;42803;55.762;38.084;2022-12-31T11:56:56;99541.31;;;0.44;100.00
53011;BME280;42803;55.762;38.084;2022-12-31T11:59:27;99554.53;;;0.40;100.00
53011;BME280;42803;55.762;38.084;2022-12-31T12:02:00;99564.06;;;0.41;100.00
53011;BME280;42803;55.762;38.084;2022-12-31T12:04:31;99552.34;;;0.36;100.00
53011;BME280;42803;55.762;38.084;2022-12-31T12:07:00;99564.97;;;0.34;100.00
53011;BME280;42803;55.762;38.084;2022-12-31T12:09:31;99569.78;;;0.31;100.00
53011;BME280;42803;55.762;38.084;2022-12-31T12:12:04;99571.06;;;0.35;100.00
53011;BME280;42803;55.762;38.084;2022-12-31T12:14:35;99569.56;;;0.37;100.00
53011;BME280;42803;55.762;38.084;2022-12-31T12:17:09;99568.09;;;0.39;100.00
53011;BME280;42803;55.762;38.084;2022-12-31T12:19:43;99568.09;;;0.39;100.00
53011;BME280;42803;55.762;38.084;2022-12-31T12:22:19;99560.22;;;0.37;100.00
53011;BME280;42803;55.762;38.084;2022-12-31T12:24:52;99566.63;;;0.34;100.00
53011;BME280;42803;55.762;38.084;2022-12-31T12:27:27;99572.88;;;0.36;100.00
53011;BME280;42803;55.762;38.084;2022-12-31T12:29:57;99572.13;;;0.37;100.00
53011;BME280;42803;55.762;38.084;2022-12-31T12:32:27;99571.97;;;0.35;100.00
53011;BME280;42803;55.762;38.084;2022-12-31T12:34:56;99576.19;;;0.35;100.00
53011;BME280;42803;55.762;38.084;2022-12-31T12:37:29;99580.38;;;0.34;100.00
53011;BME280;42803;55.762;38.084;2022-12-31T12:40:01;99590.47;;;0.33;100.00
53011;BME280;42803;55.762;38.084;2022-12-31T12:42:31;99593.41;;;0.36;100.00
53011;BME280;42803;55.762;38.084;2022-12-31T12:45:03;99592.31;;;0.34;100.00
53011;BME280;42803;55.762;38.084;2022-12-31T12:47:34;99592.13;;;0.32;100.00
53011;BME280;42803;55.762;38.084;2022-12-31T12:50:03;99592.66;;;0.37;100.00
53011;BME280;42803;55.762;38.084;2022-12-31T12:55:35;99587.16;;;0.34;100.00
53011;BME280;42803;55.762;38.084;2022-12-31T12:58:17;99598.94;;;0.32;100.00
53011;BME280;42803;55.762;38.084;2022-12-31T13:00:59;99613.41;;;0.31;100.00
53011;BME280;42803;55.762;38.084;2022-12-31T13:07:10;99593.78;;;0.32;100.00
53011;BME280;42803;55.762;38.084;2022-12-31T13:10:14;99613.41;;;0.31;100.00
53011;BME280;42803;55.762;38.084;2022-12-31T13:12:49;99615.06;;;0.31;100.00
53011;BME280;42803;55.762;38.084;2022-12-31T13:15:50;99611.22;;;0.27;100.00
53011;BME280;42803;55.762;38.084;2022-12-31T13:18:31;99612.53;;;0.23;100.00
53011;BME280;42803;55.762;38.084;2022-12-31T13:21:15;99606.25;;;0.29;100.00
53011;BME280;42803;55.762;38.084;2022-12-31T13:23:51;99612.84;;;0.27;100.00
53011;BME280;42803;55.762;38.084;2022-12-31T13:26:27;99611.59;;;0.23;100.00
53011;BME280;42803;55.762;38.084;2022-12-31T13:29:01;99602.25;;;0.23;100.00
53011;BME280;42803;55.762;38.084;2022-12-31T13:31:34;99600.59;;;0.17;100.00
53011;BME280;42803;55.762;38.084;2022-12-31T13:34:08;99603.53;;;0.13;100.00
53011;BME280;42803;55.762;38.084;2022-12-31T13:36:40;99606.84;;;0.12;100.00
53011;BME280;42803;55.762;38.084;2022-12-31T13:39:15;99609.59;;;0.13;100.00
53011;BME280;42803;55.762;38.084;2022-12-31T13:41:50;99627.75;;;0.08;100.00
53011;BME280;42803;55.762;38.084;2022-12-31T13:44:27;99630.13;;;0.06;100.00
53011;BME280;42803;55.762;38.084;2022-12-31T13:47:01;99636.00;;;0.05;100.00
53011;BME280;42803;55.762;38.084;2022-12-31T13:49:32;99625.91;;;0.07;100.00
53011;BME280;42803;55.762;38.084;2022-12-31T13:52:17;99628.84;;;0.03;100.00
53011;BME280;42803;55.762;38.084;2022-12-31T13:54:55;99614.72;;;-0.08;100.00
53011;BME280;42803;55.762;38.084;2022-12-31T13:57:35;99628.66;;;-0.13;100.00
53011;BME280;42803;55.762;38.084;2022-12-31T14:00:18;99622.97;;;-0.11;100.00
53011;BME280;42803;55.762;38.084;2022-12-31T14:02:55;99616.94;;;-0.11;100.00
53011;BME280;42803;55.762;38.084;2022-12-31T14:05:31;99618.03;;;-0.09;100.00